Flight Track Log - Related Links

Times and Time Zones

All times are in EST time to prevent confusion due to time zone crossing. See the SWA4195 flight status page for this flight to view local times or setup timezone preferences in your user account.

Time Position Orientation Groundspeed Altitude Reporting Facility
EST Latitude Longitude Course Direction KTS MPH feet Rate Location/Type
Thu 11:36:44 PM 39.1500 -76.7000 184° South 157 181 3,300  Level Potomac TRACON
Thu 11:37:45 PM 39.1000 -76.6333 134° Southeast 255 293 6,200 3,074 Climbing Potomac TRACON
Thu 11:38:45 PM 39.0333 -76.5833 150° Southeast 288 331 9,500 2,678 Climbing Potomac TRACON
Thu 11:40:42 PM 38.8575 -76.5514 172° South 374 430 14,100 1,559 Climbing Washington Center
Thu 11:41:42 PM 38.7597 -76.5314 171° South 369 425 14,100  Level Washington Center
Thu 11:42:00 PM 38.6723 -76.7078 184° South  Level FlightAware Approximate
Thu 11:42:40 PM 38.6639 -76.5142 172° South 358 412 14,100  Level Washington Center
Thu 11:43:41 PM 38.5658 -76.4972 172° South 358 412 14,100 -49 Level Washington Center
Thu 11:44:42 PM 38.4703 -76.4828 173° South 352 405 14,000 -942 Descending Washington Center
Thu 11:45:42 PM 38.3744 -76.4631 171° South 352 405 12,200 -1,850 Descending Washington Center
Thu 11:46:42 PM 38.2828 -76.4461 172° South 352 405 10,300 -1,100 Descending Washington Center
Thu 11:47:42 PM 38.1869 -76.4292 172° South 352 405 10,000 -150 Descending Washington Center
Thu 11:48:42 PM 38.0953 -76.4097 171° South 352 405 10,000  Level Washington Center
Thu 11:49:40 PM 38.0017 -76.3956 173° South 352 405 10,000  Level Washington Center
Thu 11:50:43 PM 37.9100 -76.3786 172° South 347 399 10,000  Level Washington Center
Thu 11:51:05 PM 37.8642 -76.3731 175° South 336 387 10,000  Level Washington Center
Thu 11:51:42 PM 37.8183 -76.3619 169° South 347 399 10,000  Level Washington Center
Thu 11:52:07 PM 37.7703 -76.3589 177° South 337 388 10,000  Level Washington Center
Thu 11:52:42 PM 37.7244 -76.3453 167° South 347 399 10,000 -393 Level Washington Center
Thu 11:53:08 PM 37.6828 -76.3422 177° South 330 380 9,600 -1,000 Descending Washington Center
Thu 11:53:42 PM 37.6392 -76.3314 169° South 334 384 9,000 -1,448 Descending Washington Center
Thu 11:54:06 PM 37.5975 -76.3283 177° South 303 349 8,200 -1,345 Descending Washington Center
Thu 11:54:40 PM 37.5558 -76.3175 168° South 317 365 7,700 -1,279 Descending Washington Center
Thu 11:55:07 PM 37.5097 -76.3169 179° South 291 335 6,900 -1,672 Descending Washington Center
Thu 11:55:41 PM 37.4744 -76.3167 180° South 304 350 6,000 -1,574 Descending Washington Center
Thu 11:56:08 PM 37.4306 -76.3214 185° South 283 326 5,300 -1,017 Descending Washington Center
Thu 11:56:40 PM 37.3972 -76.3211 180° South 293 337 5,000 -290 Descending Washington Center
Thu 11:57:10 PM 37.3514 -76.3233 182° South 283 326 5,000  Level Washington Center
Thu 11:57:43 PM 37.3200 -76.3231 180° South 293 337 5,000  Level Washington Center
Thu 11:58:09 PM 37.2719 -76.3278 184° South 280 322 5,000  Level Washington Center
Thu 11:58:40 PM 37.2408 -76.3250 176° South 288 331 5,000  Level Washington Center
Thu 11:59:17 PM 37.1886 -76.3347 188° South 281 323 5,000  Level Washington Center
Thu 11:59:42 PM 37.1636 -76.3319 175° South 288 331 5,000  Level Washington Center
Fri 12:00:17 AM 37.1072 -76.3367 184° South 282 325 5,000  Level Washington Center
Fri 12:00:42 AM 37.0842 -76.3339 175° South 288 331 5,000  Level Washington Center
Fri 12:01:18 AM 37.0278 -76.3386 184° South 280 322 5,000 -612 Level Washington Center
Fri 12:02:20 AM 36.9506 -76.3431 183° South 282 325 4,000 -787 Descending Washington Center
Fri 12:03:20 AM 36.8817 -76.3475 183° South 222 255 3,400 -600 Descending Washington Center

Login

Don't have an account? Register now (free) for customized features, flight alerts, and more!